FIN9DW EFHK-ESSA
Flight info
| Callsign | FIN9DW |
|---|---|
| Flight time | 0h 48m |
| Altitude | 34000 |
| Route | ADIVO5C ADIVO Y365 POGOK DCT RUNGA N872 XILAN XILAN5M |
| Aircraft | A319/M-SDE3FGHIRWY/LB1 |
Departure
| Time | 2026-04-23 17:30 |
|---|---|
| Airport | Helsinki Vantaa Airport (EFHK) |
Arrival
| Time | 2026-04-23 18:19 |
|---|---|
| Airport | Stockholm-Arlanda Airport (ESSA) |
| Time | Latitude | Longitude | Altitude | Speed | Heading |
|---|---|---|---|---|---|
| 2026-04-23 16:59 | 60.31827 | 24.97047 | 174 ft | 0 kts | 243° |
| 2026-04-23 17:17 | 60.31827 | 24.97048 | 174 ft | 1 kts | 243° |
| 2026-04-23 17:17 | 60.31837 | 24.97088 | 174 ft | 3 kts | 249° |
| 2026-04-23 17:18 | 60.31842 | 24.97164 | 174 ft | 3 kts | 297° |
| 2026-04-23 17:18 | 60.31837 | 24.97180 | 175 ft | 2 kts | 328° |
| 2026-04-23 17:18 | 60.31834 | 24.97184 | 175 ft | 0 kts | 333° |
| 2026-04-23 17:21 | 60.31865 | 24.97153 | 174 ft | 10 kts | 333° |
| 2026-04-23 17:22 | 60.31933 | 24.97081 | 173 ft | 12 kts | 333° |
| 2026-04-23 17:22 | 60.32066 | 24.96941 | 171 ft | 9 kts | 331° |
| 2026-04-23 17:23 | 60.32073 | 24.96933 | 171 ft | 0 kts | 331° |
| 2026-04-23 17:23 | 60.32085 | 24.96920 | 171 ft | 6 kts | 330° |
| 2026-04-23 17:24 | 60.32148 | 24.96846 | 170 ft | 12 kts | 330° |
| 2026-04-23 17:24 | 60.32226 | 24.96757 | 168 ft | 12 kts | 324° |
| 2026-04-23 17:24 | 60.32154 | 24.96455 | 166 ft | 15 kts | 227° |
| 2026-04-23 17:25 | 60.31997 | 24.96111 | 163 ft | 18 kts | 227° |
| 2026-04-23 17:25 | 60.31917 | 24.95928 | 162 ft | 18 kts | 229° |
| 2026-04-23 17:26 | 60.31747 | 24.95556 | 159 ft | 18 kts | 227° |
| 2026-04-23 17:26 | 60.31570 | 24.95170 | 157 ft | 17 kts | 227° |
| 2026-04-23 17:27 | 60.31400 | 24.94795 | 155 ft | 19 kts | 227° |
| 2026-04-23 17:27 | 60.31305 | 24.94583 | 153 ft | 21 kts | 228° |
| 2026-04-23 17:27 | 60.31208 | 24.94371 | 152 ft | 20 kts | 227° |
| 2026-04-23 17:27 | 60.31109 | 24.94154 | 151 ft | 22 kts | 228° |
| 2026-04-23 17:28 | 60.31036 | 24.93930 | 149 ft | 19 kts | 263° |
| 2026-04-23 17:28 | 60.31115 | 24.93737 | 147 ft | 20 kts | 347° |
| 2026-04-23 17:28 | 60.31226 | 24.93849 | 149 ft | 18 kts | 47° |
| 2026-04-23 17:28 | 60.31260 | 24.93920 | 149 ft | 0 kts | 47° |
| 2026-04-23 17:30 | 60.31340 | 24.94097 | 152 ft | 54 kts | 47° |
| 2026-04-23 17:30 | 60.32465 | 24.96580 | 328 ft | 161 kts | 47° |
| 2026-04-23 17:30 | 60.33206 | 24.98214 | 1113 ft | 157 kts | 45° |
| 2026-04-23 17:31 | 60.33973 | 24.99900 | 1673 ft | 174 kts | 45° |
| 2026-04-23 17:31 | 60.34846 | 25.01832 | 2052 ft | 201 kts | 46° |
| 2026-04-23 17:31 | 60.35849 | 25.04081 | 2555 ft | 226 kts | 47° |
| 2026-04-23 17:31 | 60.36955 | 25.06536 | 3269 ft | 244 kts | 44° |
| 2026-04-23 17:32 | 60.38121 | 25.09101 | 4290 ft | 250 kts | 44° |
| 2026-04-23 17:32 | 60.39365 | 25.11591 | 5333 ft | 253 kts | 32° |
| 2026-04-23 17:32 | 60.40997 | 25.12826 | 6345 ft | 254 kts | 5° |
| 2026-04-23 17:32 | 60.42764 | 25.12885 | 7407 ft | 254 kts | 355° |
| 2026-04-23 17:33 | 60.44448 | 25.11867 | 8496 ft | 256 kts | 332° |
| 2026-04-23 17:33 | 60.45766 | 25.09422 | 9636 ft | 263 kts | 308° |
| 2026-04-23 17:33 | 60.46417 | 25.05901 | 10569 ft | 278 kts | 283° |
| 2026-04-23 17:33 | 60.46203 | 25.01863 | 11270 ft | 304 kts | 263° |
| 2026-04-23 17:34 | 60.45676 | 24.97553 | 11667 ft | 324 kts | 264° |
| 2026-04-23 17:34 | 60.45180 | 24.93042 | 12386 ft | 331 kts | 265° |
| 2026-04-23 17:34 | 60.44196 | 24.83779 | 13965 ft | 341 kts | 266° |
| 2026-04-23 17:35 | 60.43688 | 24.79054 | 14680 ft | 345 kts | 266° |
| 2026-04-23 17:35 | 60.42626 | 24.69456 | 16115 ft | 353 kts | 267° |
| 2026-04-23 17:35 | 60.42084 | 24.64637 | 16814 ft | 357 kts | 267° |
| 2026-04-23 17:36 | 60.41527 | 24.59708 | 17520 ft | 361 kts | 267° |
| 2026-04-23 17:36 | 60.40963 | 24.54726 | 18218 ft | 365 kts | 267° |
| 2026-04-23 17:36 | 60.40389 | 24.49683 | 18823 ft | 369 kts | 268° |
| 2026-04-23 17:36 | 60.39806 | 24.44598 | 19446 ft | 372 kts | 268° |
| 2026-04-23 17:37 | 60.39217 | 24.39474 | 20091 ft | 376 kts | 268° |
| 2026-04-23 17:37 | 60.38622 | 24.34307 | 20701 ft | 379 kts | 268° |
| 2026-04-23 17:37 | 60.37408 | 24.23849 | 21926 ft | 386 kts | 268° |
| 2026-04-23 17:38 | 60.36791 | 24.18555 | 22470 ft | 389 kts | 268° |
| 2026-04-23 17:38 | 60.36165 | 24.13214 | 23066 ft | 392 kts | 268° |
| 2026-04-23 17:38 | 60.35533 | 24.07830 | 23612 ft | 396 kts | 268° |
| 2026-04-23 17:38 | 60.34894 | 24.02399 | 24105 ft | 399 kts | 268° |
| 2026-04-23 17:39 | 60.34250 | 23.96934 | 24542 ft | 402 kts | 268° |
| 2026-04-23 17:39 | 60.33599 | 23.91423 | 25007 ft | 405 kts | 268° |
| 2026-04-23 17:39 | 60.32938 | 23.85876 | 25470 ft | 408 kts | 268° |
| 2026-04-23 17:39 | 60.32268 | 23.80294 | 25928 ft | 411 kts | 268° |
| 2026-04-23 17:40 | 60.31590 | 23.74665 | 26376 ft | 414 kts | 268° |
| 2026-04-23 17:40 | 60.30905 | 23.69003 | 26825 ft | 417 kts | 268° |
| 2026-04-23 17:40 | 60.30216 | 23.63312 | 27249 ft | 419 kts | 268° |
| 2026-04-23 17:40 | 60.29520 | 23.57579 | 27691 ft | 422 kts | 268° |
| 2026-04-23 17:41 | 60.28816 | 23.51815 | 28125 ft | 425 kts | 268° |
| 2026-04-23 17:41 | 60.27386 | 23.40154 | 28964 ft | 431 kts | 269° |
| 2026-04-23 17:41 | 60.26664 | 23.34267 | 29329 ft | 434 kts | 268° |
| 2026-04-23 17:42 | 60.25190 | 23.22411 | 30115 ft | 439 kts | 268° |
| 2026-04-23 17:42 | 60.24439 | 23.16430 | 30464 ft | 442 kts | 268° |
| 2026-04-23 17:42 | 60.23680 | 23.10412 | 30803 ft | 444 kts | 268° |
| 2026-04-23 17:43 | 60.22917 | 23.04376 | 31141 ft | 446 kts | 268° |
| 2026-04-23 17:43 | 60.22149 | 22.98313 | 31422 ft | 449 kts | 267° |
| 2026-04-23 17:43 | 60.21374 | 22.92220 | 31759 ft | 450 kts | 267° |
| 2026-04-23 17:43 | 60.20596 | 22.86128 | 32221 ft | 449 kts | 267° |
| 2026-04-23 17:44 | 60.19816 | 22.80058 | 32678 ft | 448 kts | 267° |
| 2026-04-23 17:44 | 60.19032 | 22.73996 | 33137 ft | 447 kts | 267° |
| 2026-04-23 17:44 | 60.17466 | 22.61925 | 33880 ft | 446 kts | 267° |
| 2026-04-23 17:45 | 60.15162 | 22.44407 | 33924 ft | 423 kts | 267° |
| 2026-04-23 17:46 | 60.12933 | 22.27368 | 33936 ft | 422 kts | 267° |
| 2026-04-23 17:46 | 60.11425 | 22.15984 | 33940 ft | 422 kts | 267° |
| 2026-04-23 17:47 | 60.10661 | 22.10299 | 33815 ft | 421 kts | 266° |
| 2026-04-23 17:47 | 60.09895 | 22.04653 | 33254 ft | 419 kts | 266° |
| 2026-04-23 17:47 | 60.08361 | 21.93451 | 32189 ft | 414 kts | 266° |
| 2026-04-23 17:48 | 60.07603 | 21.87914 | 31689 ft | 411 kts | 266° |
| 2026-04-23 17:48 | 60.06852 | 21.82420 | 31200 ft | 408 kts | 267° |
| 2026-04-23 17:48 | 60.06117 | 21.77034 | 30729 ft | 405 kts | 267° |
| 2026-04-23 17:48 | 60.05375 | 21.71619 | 30220 ft | 402 kts | 266° |
| 2026-04-23 17:49 | 60.04636 | 21.66236 | 29757 ft | 399 kts | 266° |
| 2026-04-23 17:49 | 60.03900 | 21.60901 | 29269 ft | 396 kts | 266° |
| 2026-04-23 17:49 | 60.03168 | 21.55613 | 28789 ft | 394 kts | 266° |
| 2026-04-23 17:49 | 60.02435 | 21.50349 | 28330 ft | 391 kts | 266° |
| 2026-04-23 17:50 | 60.01704 | 21.45130 | 27889 ft | 388 kts | 266° |
| 2026-04-23 17:50 | 60.00249 | 21.34799 | 27032 ft | 383 kts | 266° |
| 2026-04-23 17:50 | 59.99527 | 21.29690 | 26597 ft | 381 kts | 266° |
| 2026-04-23 17:51 | 59.98808 | 21.24607 | 26161 ft | 378 kts | 266° |
| 2026-04-23 17:51 | 59.98096 | 21.19560 | 25730 ft | 376 kts | 266° |
| 2026-04-23 17:51 | 59.96675 | 21.09584 | 24869 ft | 371 kts | 265° |
| 2026-04-23 17:52 | 59.95965 | 21.04653 | 24445 ft | 369 kts | 265° |
| 2026-04-23 17:52 | 59.94558 | 20.94928 | 23594 ft | 365 kts | 265° |
| 2026-04-23 17:52 | 59.93857 | 20.90081 | 23061 ft | 362 kts | 265° |
| 2026-04-23 17:53 | 59.92466 | 20.80483 | 22159 ft | 358 kts | 265° |
| 2026-04-23 17:53 | 59.91774 | 20.75739 | 21727 ft | 355 kts | 264° |
| 2026-04-23 17:53 | 59.91086 | 20.71029 | 21301 ft | 353 kts | 264° |
| 2026-04-23 17:54 | 59.90400 | 20.66348 | 20880 ft | 350 kts | 264° |
| 2026-04-23 17:54 | 59.89717 | 20.61709 | 20457 ft | 348 kts | 264° |
| 2026-04-23 17:54 | 59.88353 | 20.52510 | 19670 ft | 344 kts | 264° |
| 2026-04-23 17:55 | 59.87005 | 20.43443 | 18912 ft | 340 kts | 263° |
| 2026-04-23 17:55 | 59.86337 | 20.38951 | 18551 ft | 338 kts | 263° |
| 2026-04-23 17:55 | 59.85670 | 20.34487 | 18179 ft | 336 kts | 263° |
| 2026-04-23 17:56 | 59.85004 | 20.30049 | 17771 ft | 334 kts | 263° |
| 2026-04-23 17:56 | 59.83682 | 20.21276 | 17003 ft | 329 kts | 262° |
| 2026-04-23 17:56 | 59.83024 | 20.16933 | 16633 ft | 327 kts | 262° |
| 2026-04-23 17:57 | 59.82371 | 20.12629 | 16267 ft | 324 kts | 262° |
| 2026-04-23 17:57 | 59.81723 | 20.08354 | 15887 ft | 322 kts | 262° |
| 2026-04-23 17:57 | 59.80431 | 19.99863 | 15166 ft | 319 kts | 261° |
| 2026-04-23 17:58 | 59.79789 | 19.95651 | 14836 ft | 317 kts | 261° |
| 2026-04-23 17:58 | 59.79151 | 19.91477 | 14510 ft | 315 kts | 261° |
| 2026-04-23 17:58 | 59.78728 | 19.88727 | 14299 ft | 314 kts | 261° |
| 2026-04-23 17:58 | 59.78091 | 19.84598 | 13981 ft | 312 kts | 260° |
| 2026-04-23 17:59 | 59.77457 | 19.80503 | 13647 ft | 310 kts | 260° |
| 2026-04-23 17:59 | 59.76826 | 19.76438 | 13295 ft | 308 kts | 260° |
| 2026-04-23 17:59 | 59.76197 | 19.72385 | 12920 ft | 306 kts | 260° |
| 2026-04-23 17:59 | 59.75542 | 19.68380 | 12555 ft | 305 kts | 258° |
| 2026-04-23 18:00 | 59.74875 | 19.64398 | 12198 ft | 303 kts | 258° |
| 2026-04-23 18:00 | 59.74212 | 19.60443 | 11987 ft | 301 kts | 258° |
| 2026-04-23 18:00 | 59.73553 | 19.56497 | 11994 ft | 302 kts | 258° |
| 2026-04-23 18:00 | 59.72890 | 19.52533 | 11995 ft | 303 kts | 258° |
| 2026-04-23 18:01 | 59.72227 | 19.48578 | 11996 ft | 303 kts | 258° |
| 2026-04-23 18:01 | 59.71565 | 19.44620 | 11996 ft | 303 kts | 258° |
| 2026-04-23 18:01 | 59.70903 | 19.40661 | 11996 ft | 303 kts | 258° |
| 2026-04-23 18:01 | 59.70240 | 19.36703 | 11995 ft | 303 kts | 258° |
| 2026-04-23 18:02 | 59.69576 | 19.32748 | 11993 ft | 303 kts | 258° |
| 2026-04-23 18:02 | 59.68911 | 19.28788 | 11992 ft | 303 kts | 258° |
| 2026-04-23 18:02 | 59.68246 | 19.24835 | 11996 ft | 303 kts | 258° |
| 2026-04-23 18:02 | 59.67581 | 19.20881 | 11998 ft | 303 kts | 258° |
| 2026-04-23 18:03 | 59.66914 | 19.16929 | 11998 ft | 303 kts | 258° |
| 2026-04-23 18:03 | 59.66247 | 19.12984 | 12004 ft | 303 kts | 258° |
| 2026-04-23 18:03 | 59.65579 | 19.09032 | 12004 ft | 303 kts | 258° |
| 2026-04-23 18:03 | 59.64910 | 19.05080 | 11983 ft | 303 kts | 258° |
| 2026-04-23 18:04 | 59.64249 | 19.01140 | 11858 ft | 301 kts | 258° |
| 2026-04-23 18:04 | 59.63600 | 18.97275 | 11474 ft | 299 kts | 258° |
| 2026-04-23 18:04 | 59.62948 | 18.93379 | 11108 ft | 298 kts | 258° |
| 2026-04-23 18:04 | 59.62300 | 18.89495 | 10749 ft | 296 kts | 258° |
| 2026-04-23 18:05 | 59.61659 | 18.85636 | 10402 ft | 295 kts | 258° |
| 2026-04-23 18:05 | 59.61026 | 18.81820 | 10098 ft | 291 kts | 258° |
| 2026-04-23 18:05 | 59.60401 | 18.78040 | 9745 ft | 289 kts | 258° |
| 2026-04-23 18:05 | 59.59780 | 18.74293 | 9367 ft | 286 kts | 258° |
| 2026-04-23 18:06 | 59.59162 | 18.70608 | 9168 ft | 278 kts | 258° |
| 2026-04-23 18:06 | 59.58557 | 18.67064 | 9041 ft | 267 kts | 258° |
| 2026-04-23 18:06 | 59.57963 | 18.63641 | 8818 ft | 260 kts | 258° |
| 2026-04-23 18:06 | 59.57375 | 18.60289 | 8514 ft | 257 kts | 258° |
| 2026-04-23 18:07 | 59.56788 | 18.56973 | 8161 ft | 255 kts | 258° |
| 2026-04-23 18:07 | 59.56207 | 18.53688 | 7839 ft | 253 kts | 258° |
| 2026-04-23 18:07 | 59.55631 | 18.50440 | 7482 ft | 250 kts | 257° |
| 2026-04-23 18:07 | 59.55077 | 18.47209 | 7140 ft | 248 kts | 258° |
| 2026-04-23 18:08 | 59.54518 | 18.44041 | 6964 ft | 241 kts | 253° |
| 2026-04-23 18:08 | 59.53530 | 18.41400 | 6971 ft | 241 kts | 231° |
| 2026-04-23 18:08 | 59.52296 | 18.39163 | 6971 ft | 240 kts | 228° |
| 2026-04-23 18:08 | 59.51049 | 18.36996 | 6899 ft | 238 kts | 228° |
| 2026-04-23 18:09 | 59.49803 | 18.34853 | 6612 ft | 238 kts | 228° |
| 2026-04-23 18:09 | 59.48558 | 18.32720 | 6359 ft | 236 kts | 228° |
| 2026-04-23 18:09 | 59.47323 | 18.30620 | 6071 ft | 234 kts | 228° |
| 2026-04-23 18:09 | 59.46098 | 18.28522 | 5733 ft | 234 kts | 227° |
| 2026-04-23 18:10 | 59.44879 | 18.26396 | 5418 ft | 234 kts | 228° |
| 2026-04-23 18:10 | 59.43668 | 18.24278 | 5123 ft | 232 kts | 229° |
| 2026-04-23 18:10 | 59.42751 | 18.21812 | 4824 ft | 220 kts | 252° |
| 2026-04-23 18:10 | 59.42212 | 18.19026 | 4511 ft | 218 kts | 257° |
| 2026-04-23 18:11 | 59.41729 | 18.16212 | 4189 ft | 218 kts | 257° |
| 2026-04-23 18:11 | 59.41263 | 18.13397 | 4035 ft | 216 kts | 258° |
| 2026-04-23 18:11 | 59.40804 | 18.10583 | 4035 ft | 217 kts | 258° |
| 2026-04-23 18:11 | 59.40343 | 18.07760 | 4035 ft | 218 kts | 258° |
| 2026-04-23 18:12 | 59.40128 | 18.04887 | 4034 ft | 210 kts | 278° |
| 2026-04-23 18:12 | 59.40287 | 18.02034 | 4037 ft | 209 kts | 282° |
| 2026-04-23 18:12 | 59.40487 | 17.99211 | 4034 ft | 209 kts | 283° |
| 2026-04-23 18:12 | 59.40693 | 17.96392 | 4035 ft | 209 kts | 283° |
| 2026-04-23 18:13 | 59.40897 | 17.93572 | 4035 ft | 209 kts | 283° |
| 2026-04-23 18:13 | 59.41117 | 17.90762 | 4031 ft | 207 kts | 288° |
| 2026-04-23 18:13 | 59.41841 | 17.88452 | 4027 ft | 200 kts | 326° |
| 2026-04-23 18:13 | 59.43162 | 17.87843 | 3974 ft | 201 kts | 6° |
| 2026-04-23 18:14 | 59.44490 | 17.88511 | 3772 ft | 197 kts | 9° |
| 2026-04-23 18:14 | 59.45826 | 17.89021 | 3521 ft | 194 kts | 7° |
| 2026-04-23 18:14 | 59.47151 | 17.89494 | 3264 ft | 193 kts | 8° |
| 2026-04-23 18:14 | 59.48452 | 17.89960 | 3022 ft | 188 kts | 8° |
| 2026-04-23 18:15 | 59.49721 | 17.90416 | 2749 ft | 183 kts | 8° |
| 2026-04-23 18:15 | 59.50952 | 17.90858 | 2472 ft | 176 kts | 8° |
| 2026-04-23 18:15 | 59.52143 | 17.91286 | 2241 ft | 173 kts | 8° |
| 2026-04-23 18:15 | 59.53305 | 17.91704 | 2012 ft | 168 kts | 8° |
| 2026-04-23 18:16 | 59.54445 | 17.92114 | 1785 ft | 166 kts | 8° |
| 2026-04-23 18:16 | 59.55578 | 17.92523 | 1557 ft | 161 kts | 9° |
| 2026-04-23 18:16 | 59.56589 | 17.92889 | 1347 ft | 137 kts | 9° |
| 2026-04-23 18:17 | 59.58349 | 17.93523 | 995 ft | 124 kts | 9° |
| 2026-04-23 18:17 | 59.59205 | 17.93831 | 818 ft | 124 kts | 7° |
| 2026-04-23 18:17 | 59.60048 | 17.94142 | 672 ft | 123 kts | 7° |
| 2026-04-23 18:17 | 59.60885 | 17.94441 | 497 ft | 125 kts | 8° |
| 2026-04-23 18:18 | 59.61750 | 17.94752 | 371 ft | 127 kts | 6° |
| 2026-04-23 18:18 | 59.62622 | 17.95076 | 191 ft | 127 kts | 7° |
| 2026-04-23 18:18 | 59.63442 | 17.95359 | 144 ft | 105 kts | 9° |
| 2026-04-23 18:18 | 59.63988 | 17.95562 | 143 ft | 55 kts | 8° |
| 2026-04-23 18:19 | 59.64248 | 17.95662 | 144 ft | 32 kts | 7° |
| 2026-04-23 18:19 | 59.64466 | 17.95690 | 143 ft | 31 kts | 351° |
| 2026-04-23 18:19 | 59.64636 | 17.95599 | 139 ft | 21 kts | 339° |
| 2026-04-23 18:19 | 59.64682 | 17.95441 | 138 ft | 15 kts | 236° |
| 2026-04-23 18:20 | 59.64591 | 17.95324 | 138 ft | 16 kts | 220° |
| 2026-04-23 18:20 | 59.64523 | 17.95144 | 138 ft | 17 kts | 236° |
| 2026-04-23 18:20 | 59.64458 | 17.94943 | 138 ft | 18 kts | 237° |
| 2026-04-23 18:20 | 59.64390 | 17.94729 | 138 ft | 19 kts | 238° |
| 2026-04-23 18:21 | 59.64319 | 17.94508 | 138 ft | 19 kts | 240° |
| 2026-04-23 18:21 | 59.64246 | 17.94283 | 138 ft | 20 kts | 236° |
| 2026-04-23 18:21 | 59.64173 | 17.94046 | 138 ft | 20 kts | 237° |
| 2026-04-23 18:21 | 59.64096 | 17.93807 | 138 ft | 21 kts | 238° |
| 2026-04-23 18:22 | 59.64026 | 17.93590 | 138 ft | 11 kts | 238° |
| 2026-04-23 18:22 | 59.63994 | 17.93456 | 138 ft | 11 kts | 253° |
| 2026-04-23 18:22 | 59.63994 | 17.93302 | 138 ft | 12 kts | 283° |
| 2026-04-23 18:22 | 59.64029 | 17.93146 | 138 ft | 13 kts | 298° |
| 2026-04-23 18:23 | 59.64059 | 17.93040 | 138 ft | 14 kts | 300° |
| 2026-04-23 18:23 | 59.64225 | 17.92948 | 138 ft | 10 kts | 26° |
| 2026-04-23 18:24 | 59.64282 | 17.93002 | 138 ft | 4 kts | 26° |
| 2026-04-23 18:24 | 59.64299 | 17.93018 | 138 ft | 0 kts | 26° |